sensor_id;sensor_type;location;lat;lon;timestamp;temperature;humidity
40758;DHT22;26462;47.384;19.218;2023-07-22T00:00:15;19.60;99.90
40758;DHT22;26462;47.384;19.218;2023-07-22T00:02:47;19.60;99.90
40758;DHT22;26462;47.384;19.218;2023-07-22T00:05:15;19.60;99.90
40758;DHT22;26462;47.384;19.218;2023-07-22T00:07:43;19.60;99.90
40758;DHT22;26462;47.384;19.218;2023-07-22T00:10:11;19.60;99.90
40758;DHT22;26462;47.384;19.218;2023-07-22T00:12:39;19.60;99.90
40758;DHT22;26462;47.384;19.218;2023-07-22T00:15:09;19.60;99.90
40758;DHT22;26462;47.384;19.218;2023-07-22T00:17:40;19.50;99.90
40758;DHT22;26462;47.384;19.218;2023-07-22T00:20:09;19.60;99.90
40758;DHT22;26462;47.384;19.218;2023-07-22T00:22:39;19.50;99.90
40758;DHT22;26462;47.384;19.218;2023-07-22T00:25:10;19.50;99.90
40758;DHT22;26462;47.384;19.218;2023-07-22T00:27:39;19.50;99.90
40758;DHT22;26462;47.384;19.218;2023-07-22T00:30:07;19.50;99.90
40758;DHT22;26462;47.384;19.218;2023-07-22T00:32:44;19.50;99.90
40758;DHT22;26462;47.384;19.218;2023-07-22T00:35:12;19.40;99.90
40758;DHT22;26462;47.384;19.218;2023-07-22T00:37:39;19.50;99.90
40758;DHT22;26462;47.384;19.218;2023-07-22T00:40:07;19.50;99.90
40758;DHT22;26462;47.384;19.218;2023-07-22T00:42:40;19.50;99.90
40758;DHT22;26462;47.384;19.218;2023-07-22T00:45:07;19.40;99.90
40758;DHT22;26462;47.384;19.218;2023-07-22T00:47:35;19.40;99.90
40758;DHT22;26462;47.384;19.218;2023-07-22T00:50:05;19.40;99.90
40758;DHT22;26462;47.384;19.218;2023-07-22T00:52:34;19.40;99.90
40758;DHT22;26462;47.384;19.218;2023-07-22T00:55:02;19.40;99.90
40758;DHT22;26462;47.384;19.218;2023-07-22T00:57:30;19.40;99.90
40758;DHT22;26462;47.384;19.218;2023-07-22T00:59:58;19.40;99.90
40758;DHT22;26462;47.384;19.218;2023-07-22T01:02:26;19.40;99.90
40758;DHT22;26462;47.384;19.218;2023-07-22T01:04:53;19.30;99.90
40758;DHT22;26462;47.384;19.218;2023-07-22T01:07:22;19.40;99.90
40758;DHT22;26462;47.384;19.218;2023-07-22T01:09:56;19.40;99.90
40758;DHT22;26462;47.384;19.218;2023-07-22T01:12:24;19.30;99.90
40758;DHT22;26462;47.384;19.218;2023-07-22T01:14:52;19.30;99.90
40758;DHT22;26462;47.384;19.218;2023-07-22T01:17:20;19.30;99.90
40758;DHT22;26462;47.384;19.218;2023-07-22T01:19:48;19.30;99.90
40758;DHT22;26462;47.384;19.218;2023-07-22T01:22:16;19.30;99.90
40758;DHT22;26462;47.384;19.218;2023-07-22T01:24:44;19.30;99.90
40758;DHT22;26462;47.384;19.218;2023-07-22T01:27:12;19.30;99.90
40758;DHT22;26462;47.384;19.218;2023-07-22T01:29:41;19.30;99.90
40758;DHT22;26462;47.384;19.218;2023-07-22T01:32:08;19.30;99.90
40758;DHT22;26462;47.384;19.218;2023-07-22T01:34:36;19.30;99.90
40758;DHT22;26462;47.384;19.218;2023-07-22T01:37:04;19.30;99.90
40758;DHT22;26462;47.384;19.218;2023-07-22T01:39:31;19.30;99.90
40758;DHT22;26462;47.384;19.218;2023-07-22T01:41:59;19.30;99.90
40758;DHT22;26462;47.384;19.218;2023-07-22T01:44:26;19.30;99.90
40758;DHT22;26462;47.384;19.218;2023-07-22T01:46:54;19.30;99.90
40758;DHT22;26462;47.384;19.218;2023-07-22T01:49:22;19.20;99.90
40758;DHT22;26462;47.384;19.218;2023-07-22T01:51:51;19.20;99.90
40758;DHT22;26462;47.384;19.218;2023-07-22T01:54:20;19.20;99.90
40758;DHT22;26462;47.384;19.218;2023-07-22T01:56:47;19.20;99.90
40758;DHT22;26462;47.384;19.218;2023-07-22T01:59:14;19.20;99.90
40758;DHT22;26462;47.384;19.218;2023-07-22T02:01:42;19.20;99.90
40758;DHT22;26462;47.384;19.218;2023-07-22T02:04:09;18.90;99.90
40758;DHT22;26462;47.384;19.218;2023-07-22T02:06:38;19.10;99.90
40758;DHT22;26462;47.384;19.218;2023-07-22T02:09:05;19.20;99.90
40758;DHT22;26462;47.384;19.218;2023-07-22T02:11:36;19.10;99.90
40758;DHT22;26462;47.384;19.218;2023-07-22T02:14:03;19.10;99.90
40758;DHT22;26462;47.384;19.218;2023-07-22T02:16:35;19.10;99.90
40758;DHT22;26462;47.384;19.218;2023-07-22T02:19:04;19.10;99.90
40758;DHT22;26462;47.384;19.218;2023-07-22T02:21:39;19.10;99.90
40758;DHT22;26462;47.384;19.218;2023-07-22T02:24:07;19.10;99.90
40758;DHT22;26462;47.384;19.218;2023-07-22T02:26:35;19.10;99.90
40758;DHT22;26462;47.384;19.218;2023-07-22T02:29:03;19.10;99.90
40758;DHT22;26462;47.384;19.218;2023-07-22T02:31:30;19.10;99.90
40758;DHT22;26462;47.384;19.218;2023-07-22T02:33:58;19.10;99.90
40758;DHT22;26462;47.384;19.218;2023-07-22T02:36:25;19.00;99.90
40758;DHT22;26462;47.384;19.218;2023-07-22T02:38:53;19.20;99.90
40758;DHT22;26462;47.384;19.218;2023-07-22T02:41:20;19.00;99.90
40758;DHT22;26462;47.384;19.218;2023-07-22T02:43:48;19.00;99.90
40758;DHT22;26462;47.384;19.218;2023-07-22T02:46:16;19.00;99.90
40758;DHT22;26462;47.384;19.218;2023-07-22T02:48:43;19.00;99.90
40758;DHT22;26462;47.384;19.218;2023-07-22T02:51:11;19.00;99.90
40758;DHT22;26462;47.384;19.218;2023-07-22T02:53:38;19.00;99.90
40758;DHT22;26462;47.384;19.218;2023-07-22T02:56:06;19.00;99.90
40758;DHT22;26462;47.384;19.218;2023-07-22T02:58:38;18.90;99.90
40758;DHT22;26462;47.384;19.218;2023-07-22T03:01:05;18.90;99.90
40758;DHT22;26462;47.384;19.218;2023-07-22T03:03:36;18.90;99.90
40758;DHT22;26462;47.384;19.218;2023-07-22T03:06:04;18.90;99.90
40758;DHT22;26462;47.384;19.218;2023-07-22T03:08:31;18.90;99.90
40758;DHT22;26462;47.384;19.218;2023-07-22T03:10:59;18.90;99.90
40758;DHT22;26462;47.384;19.218;2023-07-22T03:13:26;18.90;99.90
40758;DHT22;26462;47.384;19.218;2023-07-22T03:15:58;18.90;99.90
40758;DHT22;26462;47.384;19.218;2023-07-22T03:18:25;18.90;99.90
40758;DHT22;26462;47.384;19.218;2023-07-22T03:20:53;18.90;99.90
40758;DHT22;26462;47.384;19.218;2023-07-22T03:23:20;18.90;99.90
40758;DHT22;26462;47.384;19.218;2023-07-22T03:25:48;18.90;99.90
40758;DHT22;26462;47.384;19.218;2023-07-22T03:28:15;18.90;99.90
40758;DHT22;26462;47.384;19.218;2023-07-22T03:30:43;18.90;99.90
40758;DHT22;26462;47.384;19.218;2023-07-22T03:33:11;18.90;99.90
40758;DHT22;26462;47.384;19.218;2023-07-22T03:35:38;18.90;99.90
40758;DHT22;26462;47.384;19.218;2023-07-22T03:38:08;19.00;99.90
40758;DHT22;26462;47.384;19.218;2023-07-22T03:40:35;19.00;99.90
40758;DHT22;26462;47.384;19.218;2023-07-22T03:43:02;19.00;99.90
40758;DHT22;26462;47.384;19.218;2023-07-22T03:45:30;19.00;99.90
40758;DHT22;26462;47.384;19.218;2023-07-22T03:47:58;19.00;99.90
40758;DHT22;26462;47.384;19.218;2023-07-22T03:50:27;19.10;99.90
40758;DHT22;26462;47.384;19.218;2023-07-22T03:52:54;19.10;99.90
40758;DHT22;26462;47.384;19.218;2023-07-22T03:55:22;19.10;99.90
40758;DHT22;26462;47.384;19.218;2023-07-22T03:57:49;19.10;99.90
40758;DHT22;26462;47.384;19.218;2023-07-22T04:00:17;19.10;99.90
40758;DHT22;26462;47.384;19.218;2023-07-22T04:02:44;19.20;99.90
40758;DHT22;26462;47.384;19.218;2023-07-22T04:05:12;19.20;99.90
40758;DHT22;26462;47.384;19.218;2023-07-22T04:07:39;19.20;99.90
40758;DHT22;26462;47.384;19.218;2023-07-22T04:10:07;19.20;99.90
40758;DHT22;26462;47.384;19.218;2023-07-22T04:12:34;19.20;99.90
40758;DHT22;26462;47.384;19.218;2023-07-22T04:15:02;19.30;99.90
40758;DHT22;26462;47.384;19.218;2023-07-22T04:17:30;19.30;99.90
40758;DHT22;26462;47.384;19.218;2023-07-22T04:19:58;19.30;99.90
40758;DHT22;26462;47.384;19.218;2023-07-22T04:22:26;19.30;99.90
40758;DHT22;26462;47.384;19.218;2023-07-22T04:24:59;19.40;99.90
40758;DHT22;26462;47.384;19.218;2023-07-22T04:27:37;19.10;99.90
40758;DHT22;26462;47.384;19.218;2023-07-22T04:30:22;19.40;99.90
40758;DHT22;26462;47.384;19.218;2023-07-22T05:26:17;20.30;99.90
40758;DHT22;26462;47.384;19.218;2023-07-22T05:32:23;20.60;99.90
40758;DHT22;26462;47.384;19.218;2023-07-22T05:38:44;21.00;99.90
40758;DHT22;26462;47.384;19.218;2023-07-22T05:41:12;21.00;99.90
40758;DHT22;26462;47.384;19.218;2023-07-22T05:43:42;21.10;99.90
40758;DHT22;26462;47.384;19.218;2023-07-22T05:46:15;21.10;99.90
40758;DHT22;26462;47.384;19.218;2023-07-22T05:49:12;21.20;99.90
40758;DHT22;26462;47.384;19.218;2023-07-22T05:51:40;21.30;99.90
40758;DHT22;26462;47.384;19.218;2023-07-22T05:54:30;21.50;99.90
40758;DHT22;26462;47.384;19.218;2023-07-22T05:57:01;21.40;99.90
40758;DHT22;26462;47.384;19.218;2023-07-22T05:59:28;21.50;99.90
40758;DHT22;26462;47.384;19.218;2023-07-22T06:01:56;21.60;99.90
40758;DHT22;26462;47.384;19.218;2023-07-22T06:04:27;21.70;99.90
40758;DHT22;26462;47.384;19.218;2023-07-22T06:07:03;21.70;99.90
40758;DHT22;26462;47.384;19.218;2023-07-22T06:09:31;21.90;99.90
40758;DHT22;26462;47.384;19.218;2023-07-22T06:12:13;22.00;99.90
40758;DHT22;26462;47.384;19.218;2023-07-22T06:14:43;22.00;99.90
40758;DHT22;26462;47.384;19.218;2023-07-22T06:17:17;21.90;99.90
40758;DHT22;26462;47.384;19.218;2023-07-22T06:19:49;22.00;99.90
40758;DHT22;26462;47.384;19.218;2023-07-22T06:26:07;22.30;99.90
40758;DHT22;26462;47.384;19.218;2023-07-22T06:28:48;22.30;99.90
40758;DHT22;26462;47.384;19.218;2023-07-22T06:35:25;22.60;99.40
40758;DHT22;26462;47.384;19.218;2023-07-22T06:37:56;22.40;99.40
40758;DHT22;26462;47.384;19.218;2023-07-22T06:40:27;22.40;99.00
40758;DHT22;26462;47.384;19.218;2023-07-22T06:42:59;22.50;98.00
40758;DHT22;26462;47.384;19.218;2023-07-22T06:45:36;22.50;97.40
40758;DHT22;26462;47.384;19.218;2023-07-22T06:48:09;22.70;97.00
40758;DHT22;26462;47.384;19.218;2023-07-22T06:50:37;22.80;96.90
40758;DHT22;26462;47.384;19.218;2023-07-22T06:53:13;22.80;95.90
40758;DHT22;26462;47.384;19.218;2023-07-22T06:55:53;23.00;96.30
40758;DHT22;26462;47.384;19.218;2023-07-22T06:58:23;23.10;94.80
40758;DHT22;26462;47.384;19.218;2023-07-22T07:00:54;22.90;94.80
40758;DHT22;26462;47.384;19.218;2023-07-22T07:03:25;23.10;94.60
40758;DHT22;26462;47.384;19.218;2023-07-22T07:06:02;23.20;94.80
40758;DHT22;26462;47.384;19.218;2023-07-22T07:08:34;23.10;93.70
40758;DHT22;26462;47.384;19.218;2023-07-22T07:11:06;23.30;94.30
40758;DHT22;26462;47.384;19.218;2023-07-22T07:13:45;23.40;93.80
40758;DHT22;26462;47.384;19.218;2023-07-22T07:23:38;23.00;92.70
40758;DHT22;26462;47.384;19.218;2023-07-22T07:26:07;24.20;92.70
40758;DHT22;26462;47.384;19.218;2023-07-22T07:28:36;23.90;91.70
40758;DHT22;26462;47.384;19.218;2023-07-22T07:31:04;24.10;92.00
40758;DHT22;26462;47.384;19.218;2023-07-22T07:33:50;24.10;91.40
40758;DHT22;26462;47.384;19.218;2023-07-22T07:36:17;24.10;90.80
40758;DHT22;26462;47.384;19.218;2023-07-22T07:38:47;24.00;90.40
40758;DHT22;26462;47.384;19.218;2023-07-22T07:41:35;24.10;91.10
40758;DHT22;26462;47.384;19.218;2023-07-22T07:44:03;23.90;90.00
40758;DHT22;26462;47.384;19.218;2023-07-22T07:46:34;24.10;90.10
40758;DHT22;26462;47.384;19.218;2023-07-22T07:49:25;24.20;90.00
40758;DHT22;26462;47.384;19.218;2023-07-22T07:52:15;24.40;90.30
40758;DHT22;26462;47.384;19.218;2023-07-22T08:11:36;24.10;87.00
40758;DHT22;26462;47.384;19.218;2023-07-22T08:14:04;24.70;87.80
40758;DHT22;26462;47.384;19.218;2023-07-22T08:16:32;24.60;86.00
40758;DHT22;26462;47.384;19.218;2023-07-22T08:19:00;24.60;84.80
40758;DHT22;26462;47.384;19.218;2023-07-22T08:21:28;24.70;85.60
40758;DHT22;26462;47.384;19.218;2023-07-22T08:23:55;24.80;83.50
40758;DHT22;26462;47.384;19.218;2023-07-22T08:26:23;24.60;83.30
40758;DHT22;26462;47.384;19.218;2023-07-22T08:28:51;24.70;83.70
40758;DHT22;26462;47.384;19.218;2023-07-22T08:31:19;24.80;82.30
40758;DHT22;26462;47.384;19.218;2023-07-22T08:33:46;24.80;81.40
40758;DHT22;26462;47.384;19.218;2023-07-22T08:36:19;24.90;82.00
40758;DHT22;26462;47.384;19.218;2023-07-22T08:38:57;25.00;80.40
40758;DHT22;26462;47.384;19.218;2023-07-22T08:41:29;25.00;77.70
40758;DHT22;26462;47.384;19.218;2023-07-22T08:44:00;24.90;78.40
40758;DHT22;26462;47.384;19.218;2023-07-22T08:46:29;25.10;80.60
40758;DHT22;26462;47.384;19.218;2023-07-22T08:49:00;25.20;81.00
40758;DHT22;26462;47.384;19.218;2023-07-22T08:51:30;25.20;78.50
40758;DHT22;26462;47.384;19.218;2023-07-22T08:53:59;25.20;78.10
40758;DHT22;26462;47.384;19.218;2023-07-22T08:56:48;25.30;79.00
40758;DHT22;26462;47.384;19.218;2023-07-22T08:59:44;25.30;77.10
40758;DHT22;26462;47.384;19.218;2023-07-22T09:02:13;25.10;76.70
40758;DHT22;26462;47.384;19.218;2023-07-22T09:04:44;25.30;78.10
40758;DHT22;26462;47.384;19.218;2023-07-22T09:07:12;25.40;77.90
40758;DHT22;26462;47.384;19.218;2023-07-22T09:09:41;25.60;78.80
40758;DHT22;26462;47.384;19.218;2023-07-22T09:12:14;25.60;77.80
40758;DHT22;26462;47.384;19.218;2023-07-22T09:14:41;25.40;76.40
40758;DHT22;26462;47.384;19.218;2023-07-22T09:17:10;25.50;77.20
40758;DHT22;26462;47.384;19.218;2023-07-22T09:19:37;25.50;76.70
40758;DHT22;26462;47.384;19.218;2023-07-22T09:22:05;25.60;76.60
40758;DHT22;26462;47.384;19.218;2023-07-22T09:24:32;25.60;75.90
40758;DHT22;26462;47.384;19.218;2023-07-22T09:26:59;25.70;77.30
40758;DHT22;26462;47.384;19.218;2023-07-22T09:29:39;25.60;77.70
40758;DHT22;26462;47.384;19.218;2023-07-22T09:32:10;25.40;77.10
40758;DHT22;26462;47.384;19.218;2023-07-22T09:34:37;25.70;78.00
40758;DHT22;26462;47.384;19.218;2023-07-22T09:37:05;25.50;75.50
40758;DHT22;26462;47.384;19.218;2023-07-22T09:39:52;25.50;75.20
40758;DHT22;26462;47.384;19.218;2023-07-22T09:42:25;25.60;76.80
40758;DHT22;26462;47.384;19.218;2023-07-22T09:44:55;25.60;76.20
40758;DHT22;26462;47.384;19.218;2023-07-22T09:47:22;25.50;77.00
40758;DHT22;26462;47.384;19.218;2023-07-22T09:49:50;25.60;77.10
40758;DHT22;26462;47.384;19.218;2023-07-22T09:52:17;25.70;77.60
40758;DHT22;26462;47.384;19.218;2023-07-22T09:54:48;25.70;74.40
40758;DHT22;26462;47.384;19.218;2023-07-22T09:57:23;25.60;73.90
40758;DHT22;26462;47.384;19.218;2023-07-22T09:59:52;25.50;74.50
40758;DHT22;26462;47.384;19.218;2023-07-22T10:02:21;25.50;75.50
40758;DHT22;26462;47.384;19.218;2023-07-22T10:04:52;25.60;75.20
40758;DHT22;26462;47.384;19.218;2023-07-22T10:07:20;25.70;75.30
40758;DHT22;26462;47.384;19.218;2023-07-22T10:09:54;25.70;74.10
40758;DHT22;26462;47.384;19.218;2023-07-22T10:12:23;25.70;75.20
40758;DHT22;26462;47.384;19.218;2023-07-22T10:14:52;25.90;76.70
40758;DHT22;26462;47.384;19.218;2023-07-22T10:17:20;26.00;75.90
40758;DHT22;26462;47.384;19.218;2023-07-22T10:19:49;26.00;75.10
40758;DHT22;26462;47.384;19.218;2023-07-22T10:22:21;26.00;74.30
40758;DHT22;26462;47.384;19.218;2023-07-22T10:24:49;26.00;74.10
40758;DHT22;26462;47.384;19.218;2023-07-22T10:27:17;25.90;73.30
40758;DHT22;26462;47.384;19.218;2023-07-22T10:29:46;26.00;74.00
40758;DHT22;26462;47.384;19.218;2023-07-22T10:32:14;26.00;74.50
40758;DHT22;26462;47.384;19.218;2023-07-22T10:34:41;25.90;74.50
40758;DHT22;26462;47.384;19.218;2023-07-22T10:37:13;25.90;73.70
40758;DHT22;26462;47.384;19.218;2023-07-22T10:39:42;25.90;73.70
40758;DHT22;26462;47.384;19.218;2023-07-22T10:42:09;25.90;74.00
40758;DHT22;26462;47.384;19.218;2023-07-22T10:45:00;25.90;73.30
40758;DHT22;26462;47.384;19.218;2023-07-22T10:47:34;25.90;73.00
40758;DHT22;26462;47.384;19.218;2023-07-22T10:50:09;25.90;72.80
40758;DHT22;26462;47.384;19.218;2023-07-22T10:52:42;25.90;72.90
40758;DHT22;26462;47.384;19.218;2023-07-22T10:55:21;25.90;72.30
40758;DHT22;26462;47.384;19.218;2023-07-22T10:57:51;25.90;71.80
40758;DHT22;26462;47.384;19.218;2023-07-22T11:00:21;26.00;71.10
40758;DHT22;26462;47.384;19.218;2023-07-22T11:03:08;25.90;71.10
40758;DHT22;26462;47.384;19.218;2023-07-22T11:05:51;25.90;71.00
40758;DHT22;26462;47.384;19.218;2023-07-22T11:08:40;26.00;71.00
40758;DHT22;26462;47.384;19.218;2023-07-22T11:11:09;25.90;71.20
40758;DHT22;26462;47.384;19.218;2023-07-22T11:13:39;25.70;70.60
40758;DHT22;26462;47.384;19.218;2023-07-22T11:16:11;25.90;71.30
40758;DHT22;26462;47.384;19.218;2023-07-22T11:18:40;25.90;69.90
40758;DHT22;26462;47.384;19.218;2023-07-22T11:21:12;26.00;71.40
40758;DHT22;26462;47.384;19.218;2023-07-22T11:23:39;25.90;69.30
40758;DHT22;26462;47.384;19.218;2023-07-22T11:26:10;25.90;70.30
40758;DHT22;26462;47.384;19.218;2023-07-22T11:28:39;25.70;69.30
40758;DHT22;26462;47.384;19.218;2023-07-22T11:31:10;25.80;70.60
40758;DHT22;26462;47.384;19.218;2023-07-22T11:33:40;25.90;71.00
40758;DHT22;26462;47.384;19.218;2023-07-22T11:36:07;26.00;69.10
40758;DHT22;26462;47.384;19.218;2023-07-22T11:38:35;26.00;68.80
40758;DHT22;26462;47.384;19.218;2023-07-22T11:41:04;25.90;68.30
40758;DHT22;26462;47.384;19.218;2023-07-22T11:43:32;25.90;70.20
40758;DHT22;26462;47.384;19.218;2023-07-22T11:46:00;26.00;70.50
40758;DHT22;26462;47.384;19.218;2023-07-22T11:48:27;26.10;69.90
40758;DHT22;26462;47.384;19.218;2023-07-22T11:50:59;26.00;67.90
40758;DHT22;26462;47.384;19.218;2023-07-22T11:53:26;25.90;67.70
40758;DHT22;26462;47.384;19.218;2023-07-22T11:55:58;26.00;68.20
40758;DHT22;26462;47.384;19.218;2023-07-22T11:58:27;26.10;69.50
40758;DHT22;26462;47.384;19.218;2023-07-22T12:01:07;26.00;68.50
40758;DHT22;26462;47.384;19.218;2023-07-22T12:03:35;26.10;70.60
40758;DHT22;26462;47.384;19.218;2023-07-22T12:06:06;26.10;68.50
40758;DHT22;26462;47.384;19.218;2023-07-22T12:08:34;26.10;67.90
40758;DHT22;26462;47.384;19.218;2023-07-22T12:11:03;26.00;67.70
40758;DHT22;26462;47.384;19.218;2023-07-22T12:13:36;26.20;69.20
40758;DHT22;26462;47.384;19.218;2023-07-22T12:16:05;26.40;68.20
40758;DHT22;26462;47.384;19.218;2023-07-22T12:18:46;26.40;64.10
40758;DHT22;26462;47.384;19.218;2023-07-22T12:21:15;26.20;62.40
40758;DHT22;26462;47.384;19.218;2023-07-22T12:23:43;26.20;64.00
40758;DHT22;26462;47.384;19.218;2023-07-22T12:26:11;26.20;64.00
40758;DHT22;26462;47.384;19.218;2023-07-22T12:28:39;26.30;63.20
40758;DHT22;26462;47.384;19.218;2023-07-22T12:31:07;26.20;65.10
40758;DHT22;26462;47.384;19.218;2023-07-22T12:33:37;26.30;65.80
40758;DHT22;26462;47.384;19.218;2023-07-22T12:36:04;26.30;66.80
40758;DHT22;26462;47.384;19.218;2023-07-22T12:38:32;26.30;66.40
40758;DHT22;26462;47.384;19.218;2023-07-22T12:41:00;26.30;65.60
40758;DHT22;26462;47.384;19.218;2023-07-22T12:43:28;26.40;68.30
40758;DHT22;26462;47.384;19.218;2023-07-22T12:45:56;26.30;65.30
40758;DHT22;26462;47.384;19.218;2023-07-22T12:48:23;26.40;67.20
40758;DHT22;26462;47.384;19.218;2023-07-22T12:50:54;26.60;64.60
40758;DHT22;26462;47.384;19.218;2023-07-22T12:53:21;26.20;61.60
40758;DHT22;26462;47.384;19.218;2023-07-22T12:55:49;26.20;63.10
40758;DHT22;26462;47.384;19.218;2023-07-22T12:58:17;26.40;63.60
40758;DHT22;26462;47.384;19.218;2023-07-22T13:00:45;26.50;62.30
40758;DHT22;26462;47.384;19.218;2023-07-22T13:03:16;26.40;63.60
40758;DHT22;26462;47.384;19.218;2023-07-22T13:05:44;26.60;63.90
40758;DHT22;26462;47.384;19.218;2023-07-22T13:08:15;26.50;62.90
40758;DHT22;26462;47.384;19.218;2023-07-22T13:10:43;26.50;62.00
40758;DHT22;26462;47.384;19.218;2023-07-22T13:13:12;26.60;61.60
40758;DHT22;26462;47.384;19.218;2023-07-22T13:15:39;26.60;64.40
40758;DHT22;26462;47.384;19.218;2023-07-22T13:18:07;26.60;64.80
40758;DHT22;26462;47.384;19.218;2023-07-22T13:20:35;26.50;64.20
40758;DHT22;26462;47.384;19.218;2023-07-22T13:23:02;26.50;62.70
40758;DHT22;26462;47.384;19.218;2023-07-22T13:25:31;26.30;63.00
40758;DHT22;26462;47.384;19.218;2023-07-22T13:27:58;26.40;63.20
40758;DHT22;26462;47.384;19.218;2023-07-22T13:30:25;26.30;63.60
40758;DHT22;26462;47.384;19.218;2023-07-22T13:32:53;26.40;62.60
40758;DHT22;26462;47.384;19.218;2023-07-22T13:35:20;26.40;62.20
40758;DHT22;26462;47.384;19.218;2023-07-22T13:37:48;26.50;64.50
40758;DHT22;26462;47.384;19.218;2023-07-22T13:40:15;26.60;63.50
40758;DHT22;26462;47.384;19.218;2023-07-22T13:42:43;26.70;62.00
40758;DHT22;26462;47.384;19.218;2023-07-22T13:45:11;26.60;62.00
40758;DHT22;26462;47.384;19.218;2023-07-22T13:47:39;26.60;61.90
40758;DHT22;26462;47.384;19.218;2023-07-22T13:50:07;26.70;62.60
40758;DHT22;26462;47.384;19.218;2023-07-22T13:52:35;26.50;61.40
40758;DHT22;26462;47.384;19.218;2023-07-22T13:55:03;26.60;63.60
40758;DHT22;26462;47.384;19.218;2023-07-22T13:57:30;26.60;62.80
40758;DHT22;26462;47.384;19.218;2023-07-22T13:59:58;26.50;63.50
40758;DHT22;26462;47.384;19.218;2023-07-22T14:02:25;26.50;62.70
40758;DHT22;26462;47.384;19.218;2023-07-22T14:04:53;26.60;62.80
40758;DHT22;26462;47.384;19.218;2023-07-22T14:07:21;26.60;61.70
40758;DHT22;26462;47.384;19.218;2023-07-22T14:09:48;26.60;63.10
40758;DHT22;26462;47.384;19.218;2023-07-22T14:12:16;26.70;63.40
40758;DHT22;26462;47.384;19.218;2023-07-22T14:14:43;26.70;63.10
40758;DHT22;26462;47.384;19.218;2023-07-22T14:17:11;26.70;62.00
40758;DHT22;26462;47.384;19.218;2023-07-22T14:19:39;26.70;63.50
40758;DHT22;26462;47.384;19.218;2023-07-22T14:22:06;26.70;61.70
40758;DHT22;26462;47.384;19.218;2023-07-22T14:24:34;26.70;63.30
40758;DHT22;26462;47.384;19.218;2023-07-22T14:27:04;26.70;64.30
40758;DHT22;26462;47.384;19.218;2023-07-22T14:29:31;26.80;62.70
40758;DHT22;26462;47.384;19.218;2023-07-22T14:31:59;26.70;63.10
40758;DHT22;26462;47.384;19.218;2023-07-22T14:34:27;26.70;62.80
40758;DHT22;26462;47.384;19.218;2023-07-22T14:36:54;26.70;61.60
40758;DHT22;26462;47.384;19.218;2023-07-22T14:39:22;26.70;62.00
40758;DHT22;26462;47.384;19.218;2023-07-22T14:41:50;26.60;60.40
40758;DHT22;26462;47.384;19.218;2023-07-22T14:44:19;26.50;60.90
40758;DHT22;26462;47.384;19.218;2023-07-22T14:46:47;26.50;59.70
40758;DHT22;26462;47.384;19.218;2023-07-22T14:49:14;26.50;60.80
40758;DHT22;26462;47.384;19.218;2023-07-22T14:51:42;26.60;59.90
40758;DHT22;26462;47.384;19.218;2023-07-22T14:54:10;26.60;60.80
40758;DHT22;26462;47.384;19.218;2023-07-22T14:56:37;26.60;60.80
40758;DHT22;26462;47.384;19.218;2023-07-22T14:59:05;26.50;58.70
40758;DHT22;26462;47.384;19.218;2023-07-22T15:01:39;26.60;58.90
40758;DHT22;26462;47.384;19.218;2023-07-22T15:04:07;26.60;58.70
40758;DHT22;26462;47.384;19.218;2023-07-22T15:06:36;26.50;59.10
40758;DHT22;26462;47.384;19.218;2023-07-22T15:09:04;26.40;58.30
40758;DHT22;26462;47.384;19.218;2023-07-22T15:11:36;26.30;58.50
40758;DHT22;26462;47.384;19.218;2023-07-22T15:14:04;26.30;57.70
40758;DHT22;26462;47.384;19.218;2023-07-22T15:16:32;26.40;59.20
40758;DHT22;26462;47.384;19.218;2023-07-22T15:19:00;26.40;60.00
40758;DHT22;26462;47.384;19.218;2023-07-22T15:21:28;26.50;60.00
40758;DHT22;26462;47.384;19.218;2023-07-22T15:23:56;26.30;58.60
40758;DHT22;26462;47.384;19.218;2023-07-22T15:26:23;26.40;59.10
40758;DHT22;26462;47.384;19.218;2023-07-22T15:28:52;26.30;58.30
40758;DHT22;26462;47.384;19.218;2023-07-22T15:31:20;26.30;58.70
40758;DHT22;26462;47.384;19.218;2023-07-22T15:33:51;26.30;59.10
40758;DHT22;26462;47.384;19.218;2023-07-22T15:36:19;26.30;59.60
40758;DHT22;26462;47.384;19.218;2023-07-22T15:38:47;26.30;57.90
40758;DHT22;26462;47.384;19.218;2023-07-22T15:41:14;26.30;59.70
40758;DHT22;26462;47.384;19.218;2023-07-22T15:43:41;26.30;59.80
40758;DHT22;26462;47.384;19.218;2023-07-22T15:46:09;26.20;59.30
40758;DHT22;26462;47.384;19.218;2023-07-22T15:48:37;26.20;59.70
40758;DHT22;26462;47.384;19.218;2023-07-22T15:51:04;26.30;59.90
40758;DHT22;26462;47.384;19.218;2023-07-22T15:53:33;26.20;58.40
40758;DHT22;26462;47.384;19.218;2023-07-22T15:56:01;26.20;59.20
40758;DHT22;26462;47.384;19.218;2023-07-22T15:58:28;26.20;59.30
40758;DHT22;26462;47.384;19.218;2023-07-22T16:00:56;26.20;59.90
40758;DHT22;26462;47.384;19.218;2023-07-22T16:03:24;26.30;60.20
40758;DHT22;26462;47.384;19.218;2023-07-22T16:05:52;26.10;57.60
40758;DHT22;26462;47.384;19.218;2023-07-22T16:08:19;26.20;57.60
40758;DHT22;26462;47.384;19.218;2023-07-22T16:10:46;26.20;55.90
40758;DHT22;26462;47.384;19.218;2023-07-22T16:13:14;26.10;57.70
40758;DHT22;26462;47.384;19.218;2023-07-22T16:15:41;26.00;57.70
40758;DHT22;26462;47.384;19.218;2023-07-22T16:18:08;25.90;56.90
40758;DHT22;26462;47.384;19.218;2023-07-22T16:20:36;25.80;57.60
40758;DHT22;26462;47.384;19.218;2023-07-22T16:23:03;25.70;57.40
40758;DHT22;26462;47.384;19.218;2023-07-22T16:25:30;25.60;57.50
40758;DHT22;26462;47.384;19.218;2023-07-22T16:27:59;25.60;57.90
40758;DHT22;26462;47.384;19.218;2023-07-22T16:30:26;25.60;57.60
40758;DHT22;26462;47.384;19.218;2023-07-22T16:32:54;25.60;58.50
40758;DHT22;26462;47.384;19.218;2023-07-22T16:35:21;25.60;58.20
40758;DHT22;26462;47.384;19.218;2023-07-22T16:37:49;25.50;58.50
40758;DHT22;26462;47.384;19.218;2023-07-22T16:40:16;25.50;59.90
40758;DHT22;26462;47.384;19.218;2023-07-22T16:42:45;25.40;59.50
40758;DHT22;26462;47.384;19.218;2023-07-22T16:45:15;25.40;59.90
40758;DHT22;26462;47.384;19.218;2023-07-22T16:47:42;25.30;60.40
40758;DHT22;26462;47.384;19.218;2023-07-22T16:50:10;25.30;59.90
40758;DHT22;26462;47.384;19.218;2023-07-22T16:52:37;25.20;60.20
40758;DHT22;26462;47.384;19.218;2023-07-22T16:55:05;25.20;60.20
40758;DHT22;26462;47.384;19.218;2023-07-22T16:57:34;25.10;60.30
40758;DHT22;26462;47.384;19.218;2023-07-22T17:00:02;25.10;60.80
40758;DHT22;26462;47.384;19.218;2023-07-22T17:02:30;25.10;61.20